< Typhoon 201515 2015 Season Typhoon 201517 >
Typhoon 201516 (ATSANI)
General InformationDetailed Track InformationTrack Information on Google MapsForecast History on Google MapsAccess Analytics MapList of All Images || NewsDisaster Info.WeblogTrackbackTyphoon FrontTwiphoonTyphoon Now!Typhoon ImaginationDisaster Info. XMLResourceGoogle EarthGE AnimationAtom FeedGeoJSON
Detalied Best Track Wind (Time Zone = UTC)
Year Month Day Hour Lat. Long. Wind (kt) Gust (kt) Direc. of Major Storm Axis Radius of Major Storm Axis (nm) Radius of Minor Storm Axis (nm) Direc. of Major Gale Axis Radius of Major Gale Axis (nm) Radius of Minor Gale Axis (nm) Image
2015 8 14 00 14.8 163.5 0 0 - - - - - - Image
2015 8 14 06 15.0 163.0 0 0 - - - - - - Image
2015 8 14 12 15.0 162.6 0 0 - - - - - - Image
2015 8 14 18 14.8 162.4 35 0 - - - symmetric 120 120 Image
2015 8 15 00 14.7 162.2 35 0 - - - symmetric 120 120 Image
2015 8 15 06 14.8 162.0 35 0 - - - symmetric 120 120 Image
2015 8 15 12 14.9 161.8 40 0 - - - S 150 120 Image
2015 8 15 18 14.8 161.3 45 0 - - - S 150 120 Image
2015 8 16 00 14.4 160.9 45 0 - - - E 150 120 Image
2015 8 16 06 14.5 160.4 50 0 - - - E 180 150 Image
2015 8 16 12 14.4 160.0 55 0 symmetric 50 50 E 180 150 Image
2015 8 16 18 14.3 159.6 60 0 symmetric 60 60 E 230 180 Image
2015 8 17 00 14.5 159.1 65 0 symmetric 80 80 E 270 180 Image
2015 8 17 06 14.7 158.5 75 0 symmetric 80 80 E 270 180 Image
2015 8 17 12 15.1 158.0 80 0 symmetric 80 80 E 270 180 Image
2015 8 17 18 15.7 157.0 90 0 symmetric 90 90 E 270 210 Image
2015 8 18 00 15.9 156.2 95 0 symmetric 100 100 E 270 210 Image
2015 8 18 06 16.3 155.5 95 0 symmetric 100 100 E 270 210 Image
2015 8 18 12 17.0 154.9 95 0 symmetric 100 100 E 300 240 Image
2015 8 18 18 17.9 153.8 95 0 symmetric 100 100 E 300 240 Image
2015 8 19 00 18.7 152.9 100 0 symmetric 100 100 E 300 240 Image
2015 8 19 06 19.1 151.9 100 0 symmetric 100 100 symmetric 300 300 Image
2015 8 19 12 19.7 151.3 100 0 symmetric 120 120 symmetric 300 300 Image
2015 8 19 18 20.4 150.4 100 0 symmetric 150 150 symmetric 300 300 Image
2015 8 20 00 21.2 149.5 100 0 symmetric 150 150 symmetric 300 300 Image
2015 8 20 06 22.0 148.6 95 0 symmetric 150 150 symmetric 325 325 Image
2015 8 20 12 22.6 147.8 95 0 symmetric 150 150 symmetric 325 325 Image
2015 8 20 18 23.3 147.1 90 0 symmetric 150 150 symmetric 300 300 Image
2015 8 21 00 24.1 146.5 90 0 E 150 90 SE 300 270 Image
2015 8 21 06 25.0 146.0 85 0 E 150 90 SE 300 240 Image
2015 8 21 12 25.5 145.5 85 0 E 150 90 SE 300 240 Image
2015 8 21 18 26.4 145.1 80 0 E 150 90 SE 325 240 Image
2015 8 22 00 27.0 144.9 80 0 E 150 90 SE 325 270 Image
2015 8 22 06 27.6 145.0 80 0 E 150 90 SE 325 270 Image
2015 8 22 12 28.2 145.1 80 0 E 150 90 SE 325 270 Image
2015 8 22 18 29.0 145.3 80 0 E 150 90 SE 325 270 Image
2015 8 23 00 29.5 145.5 80 0 E 150 90 SE 325 300 Image
2015 8 23 06 30.0 146.1 80 0 SE 120 90 SE 325 300 Image
2015 8 23 12 30.6 146.7 75 0 SE 120 90 SE 325 270 Image
2015 8 23 18 31.3 147.4 75 0 SE 90 60 SE 325 270 Image
2015 8 24 00 32.0 148.1 75 0 SE 90 60 SE 325 270 Image
2015 8 24 06 32.6 149.2 70 0 SE 120 90 SE 325 270 Image
2015 8 24 12 32.9 150.8 65 0 SE 120 90 SE 325 300 Image
2015 8 24 18 33.9 152.9 60 0 SE 150 90 SE 325 300 Image
2015 8 25 00 35.6 155.7 60 0 symmetric 150 150 symmetric 325 325 Image
2015 8 25 06 37.6 158.0 0 0 - - - - - - Image
2015 8 25 12 39.0 159.3 0 0 - - - - - - Image
2015 8 25 18 39.4 161.1 0 0 - - - - - - Image
2015 8 26 00 39.5 162.4 0 0 - - - - - - Image
2015 8 26 06 40.0 163.6 0 0 - - - - - - Image
2015 8 26 12 40.5 164.1 0 0 - - - - - - Image
2015 8 26 18 40.6 164.1 0 0 - - - - - - Image
2015 8 27 00 40.5 164.0 0 0 - - - - - - Image
2015 8 27 06 40.4 164.1 0 0 - - - - - - Image
2015 8 27 12 40.3 164.3 0 0 - - - - - - Image
2015 8 27 18 40.1 164.6 0 0 - - - - - - Image
2015 8 28 00 40.2 164.8 0 0 - - - - - - Image
2015 8 28 06 40.8 165.3 0 0 - - - - - - Image
2015 8 28 12 41.9 165.9 0 0 - - - - - - Image
2015 8 28 18 43.5 166.5 0 0 - - - - - - Image
2015 8 29 00 45.4 167.6 0 0 - - - - - - Image
2015 8 29 06 47.7 168.7 0 0 - - - - - - Image
Japan Meteorological Agency Best Track Data | Correction Date : 2015-10-08
< Typhoon 201515 2015 Season Typhoon 201517 >

Help